Terminal Aerodrome Forecast
Issued by NWS

Current Version | Previous Version | Text Only | Print | Product List | Glossary Off
Versions: 1 2 3 4 5 6 7 8 9 10 11 12 13 14 15 16 17 18 19 20 21 22 23 24

634
FTUS41 KRLX 220520
TAFCKB
TAF
KCKB 220520Z 2206/2306 00000KT P6SM OVC035
     FM220900 17004KT P6SM OVC025
     FM221100 17004KT P6SM OVC045
     FM221700 16006KT P6SM SCT200
     FM222300 17009KT P6SM BKN070
     FM230200 15010G17KT P6SM OVC060
     FM230500 17011G19KT 4SM -SHRA OVC040=

USA.gov is the U.S. government's official web portal to all federal, state and local government web resources and services.